Leisure City, Florida
Current Conditions -  °F | °C
As of 2:10 AM on Wednesday 22 Oct 2014 (Local Time) from KHST Reporting Station
Scattered Clouds Scattered Clouds  
Wind Chill: 73°   Ceiling: Unl
Heat Index: 73°   Visibility: 10mi
Dew Point: 72°   Wind: 0mph
Humidity: 94%   Direction: NA
Pressure: 29.92"   Gusts: NA
Location:  25.5°N, 80.43°W
Report Text: KHST 220610Z AUTO 00000KT 10SM SCT140 23/22 A2992 RMK AO2
Loading
Personal Weather Stations






























Interactive Weather Map New forecast layout! Learn more

10-Day Weather Forecast

Advertisements
Track Severe Weather on mobile